createdAt,value
2018-06-02T00:01:17.227Z,69.82
2018-06-02T00:03:43.177Z,68.88
2018-06-02T00:06:09.137Z,67.92
2018-06-02T00:08:35.104Z,67.44
2018-06-02T00:11:01.088Z,67.67
2018-06-02T00:13:27.014Z,67.74
2018-06-02T00:15:52.961Z,67.24
2018-06-02T00:18:18.904Z,66.89
2018-06-02T00:20:44.839Z,66.44
2018-06-02T00:23:10.793Z,67.06
2018-06-02T00:25:36.768Z,67.90
2018-06-02T00:28:02.726Z,68.64
2018-06-02T00:30:28.677Z,68.22
2018-06-02T00:32:54.613Z,67.12
2018-06-02T00:35:20.595Z,67.07
2018-06-02T00:37:46.522Z,66.51
2018-06-02T00:40:12.506Z,66.16
2018-06-02T00:42:38.460Z,66.76
2018-06-02T00:45:04.393Z,66.24
2018-06-02T00:47:30.371Z,67.27
2018-06-02T00:49:56.324Z,65.86
2018-06-02T00:52:22.272Z,65.82
2018-06-02T00:54:48.219Z,66.01
2018-06-02T00:57:14.188Z,65.96
2018-06-02T00:59:40.137Z,66.13
2018-06-02T01:02:06.085Z,65.53
2018-06-02T01:04:32.029Z,64.59
2018-06-02T01:06:57.992Z,64.36
2018-06-02T01:09:24.464Z,64.60
2018-06-02T01:11:50.394Z,63.31
2018-06-02T01:14:16.369Z,64.16
2018-06-02T01:16:42.322Z,63.45
2018-06-02T01:19:08.279Z,63.86
2018-06-02T01:21:34.226Z,62.78
2018-06-02T01:24:00.180Z,63.31
2018-06-02T01:26:26.153Z,62.81
2018-06-02T01:28:52.115Z,62.62
2018-06-02T01:31:18.072Z,64.03
2018-06-02T01:33:44.016Z,64.57
2018-06-02T01:36:09.962Z,64.73
2018-06-02T01:38:35.894Z,64.55
2018-06-02T01:41:01.832Z,64.35
2018-06-02T01:43:27.757Z,62.79
2018-06-02T01:45:53.691Z,62.92
2018-06-02T01:48:19.622Z,63.67
2018-06-02T01:50:45.583Z,64.84
2018-06-02T01:53:11.522Z,63.94
2018-06-02T01:55:37.451Z,63.82
2018-06-02T01:58:03.385Z,64.12
2018-06-02T02:00:29.334Z,63.67
2018-06-02T02:02:55.284Z,64.31
2018-06-02T02:05:21.415Z,64.28
2018-06-02T02:07:47.370Z,64.61
2018-06-02T02:10:13.305Z,65.94
2018-06-02T02:12:39.258Z,65.92
2018-06-02T02:15:05.204Z,64.59
2018-06-02T02:17:31.288Z,65.45
2018-06-02T02:19:57.280Z,64.84
2018-06-02T02:22:23.235Z,63.85
2018-06-02T02:24:49.177Z,63.90
2018-06-02T02:27:15.120Z,63.38
2018-06-02T02:29:41.088Z,63.66
2018-06-02T02:32:07.032Z,64.59
2018-06-02T02:34:32.982Z,64.94
2018-06-02T02:36:58.926Z,64.59
2018-06-02T02:39:24.879Z,64.22
2018-06-02T02:41:50.857Z,63.80
2018-06-02T02:44:16.806Z,64.52
2018-06-02T02:46:42.742Z,63.52
2018-06-02T02:49:08.678Z,64.20
2018-06-02T02:51:34.615Z,63.84
2018-06-02T02:54:00.537Z,63.50
2018-06-02T02:56:26.585Z,63.81
2018-06-02T02:58:52.540Z,64.21
2018-06-02T03:01:18.490Z,63.89
2018-06-02T03:03:44.459Z,63.55
2018-06-02T03:06:10.394Z,62.75
2018-06-02T03:08:36.317Z,62.79
2018-06-02T03:11:02.249Z,63.25
2018-06-02T03:13:28.212Z,63.64
2018-06-02T03:15:54.158Z,63.98
2018-06-02T03:18:20.111Z,64.57
2018-06-02T03:20:46.062Z,64.46
2018-06-02T03:23:12.029Z,65.89
2018-06-02T03:25:37.980Z,64.35
2018-06-02T03:28:03.930Z,64.75
2018-06-02T03:30:29.896Z,63.30
2018-06-02T03:32:55.837Z,63.72
2018-06-02T03:35:21.801Z,62.73
2018-06-02T03:37:47.756Z,63.47
2018-06-02T03:40:13.711Z,62.85
2018-06-02T03:42:39.662Z,62.50
2018-06-02T03:45:05.617Z,62.15
2018-06-02T03:47:31.569Z,62.38
2018-06-02T03:49:57.556Z,62.11
2018-06-02T03:52:23.491Z,62.74
2018-06-02T03:54:49.452Z,62.60
2018-06-02T03:57:15.379Z,61.70
2018-06-02T03:59:41.351Z,62.19
2018-06-02T04:02:07.312Z,62.87
2018-06-02T04:04:33.276Z,62.73
2018-06-02T04:06:59.217Z,61.43
2018-06-02T04:09:25.222Z,61.82
2018-06-02T04:11:51.176Z,62.45
2018-06-02T04:14:17.132Z,62.50
2018-06-02T04:16:43.104Z,62.28
2018-06-02T04:19:09.070Z,62.09
2018-06-02T04:21:35.016Z,63.12
2018-06-02T04:24:01.000Z,63.26
2018-06-02T04:26:26.960Z,63.42
2018-06-02T04:28:52.948Z,63.53
2018-06-02T04:31:18.869Z,62.58
2018-06-02T04:33:44.818Z,62.61
2018-06-02T04:36:10.790Z,62.75
2018-06-02T04:38:36.768Z,62.57
2018-06-02T04:41:02.748Z,63.45
2018-06-02T04:43:28.707Z,62.51
2018-06-02T04:45:54.677Z,62.97
2018-06-02T04:48:20.666Z,62.73
2018-06-02T04:50:46.628Z,63.08
2018-06-02T04:53:12.585Z,64.25
2018-06-02T04:55:38.561Z,63.41
2018-06-02T04:58:04.516Z,63.07
2018-06-02T05:00:30.471Z,63.30
2018-06-02T05:02:56.411Z,62.75
2018-06-02T05:05:23.094Z,64.00
2018-06-02T05:07:49.070Z,63.63
2018-06-02T05:10:15.052Z,62.86
2018-06-02T05:12:40.989Z,63.22
2018-06-02T05:15:07.026Z,64.54
2018-06-02T05:17:33.015Z,63.39
2018-06-02T05:19:58.981Z,64.86
2018-06-02T05:22:24.935Z,64.58
2018-06-02T05:24:50.897Z,64.19
2018-06-02T05:27:16.859Z,63.83
2018-06-02T05:29:42.805Z,63.25
2018-06-02T05:32:08.817Z,63.30
2018-06-02T05:34:34.798Z,62.32
2018-06-02T05:37:00.761Z,63.18
2018-06-02T05:39:26.707Z,64.49
2018-06-02T05:41:52.661Z,63.80
2018-06-02T05:44:18.631Z,63.28
2018-06-02T05:46:44.592Z,61.69
2018-06-02T05:49:10.534Z,60.31
2018-06-02T05:51:36.468Z,59.73
2018-06-02T05:54:02.428Z,60.25
2018-06-02T05:56:28.379Z,60.00
2018-06-02T05:58:54.315Z,58.27
2018-06-02T06:01:20.277Z,57.01
2018-06-02T06:03:46.245Z,56.95
2018-06-02T06:06:12.236Z,56.74
2018-06-02T06:08:38.185Z,54.09
2018-06-02T06:11:04.169Z,52.21
2018-06-02T06:13:30.134Z,50.83
2018-06-02T06:15:56.108Z,51.92
2018-06-02T06:18:22.068Z,53.35
2018-06-02T06:20:48.039Z,52.57
2018-06-02T06:23:13.995Z,53.03
2018-06-02T06:25:39.949Z,55.43
2018-06-02T06:28:05.881Z,55.21
2018-06-02T06:30:31.844Z,55.56
2018-06-02T06:32:57.835Z,55.80
2018-06-02T06:35:23.804Z,56.65
2018-06-02T06:37:49.816Z,57.29
2018-06-02T06:40:15.772Z,57.12
2018-06-02T06:42:41.737Z,56.59
2018-06-02T06:45:07.687Z,55.90
2018-06-02T06:47:33.636Z,55.99
2018-06-02T06:49:59.572Z,55.85
2018-06-02T06:52:25.551Z,56.57
2018-06-02T06:54:51.507Z,55.89
2018-06-02T06:57:17.769Z,55.85
2018-06-02T06:59:43.707Z,55.68
2018-06-02T07:02:09.642Z,55.08
2018-06-02T07:04:35.597Z,56.20
2018-06-02T07:07:01.529Z,55.62
2018-06-02T07:09:27.504Z,54.87
2018-06-02T07:11:53.547Z,55.15
2018-06-02T07:14:19.519Z,55.39
2018-06-02T07:16:45.458Z,55.32
2018-06-02T07:19:11.416Z,54.50
2018-06-02T07:21:38.293Z,54.13
2018-06-02T07:24:04.229Z,53.03
2018-06-02T07:26:30.205Z,52.64
2018-06-02T07:28:56.661Z,51.92
2018-06-02T07:31:22.644Z,51.44
2018-06-02T07:33:48.625Z,53.97
2018-06-02T07:36:14.842Z,54.29
2018-06-02T07:38:40.811Z,53.66
2018-06-02T07:41:06.809Z,53.98
2018-06-02T07:43:32.776Z,53.98
2018-06-02T07:45:58.844Z,54.68
2018-06-02T07:48:24.792Z,55.24
2018-06-02T07:50:50.766Z,54.53
2018-06-02T07:53:16.851Z,52.55
2018-06-02T07:55:42.803Z,52.44
2018-06-02T07:58:09.104Z,52.95
2018-06-02T08:00:35.096Z,51.60
2018-06-02T08:03:01.026Z,52.13
2018-06-02T08:05:26.991Z,52.17
2018-06-02T08:07:53.035Z,48.91
2018-06-02T08:10:19.026Z,46.73
2018-06-02T08:12:45.004Z,46.84
2018-06-02T08:15:10.976Z,47.59
2018-06-02T08:17:36.940Z,46.06
2018-06-02T08:20:02.908Z,46.52
2018-06-02T08:22:29.752Z,46.72
2018-06-02T08:24:55.719Z,48.22
2018-06-02T08:27:21.676Z,48.70
2018-06-02T08:29:48.665Z,48.69
2018-06-02T08:32:14.630Z,49.47
2018-06-02T08:34:45.246Z,48.60
2018-06-02T08:37:11.216Z,50.33
2018-06-02T08:39:38.246Z,49.91
2018-06-02T08:42:04.339Z,48.93
2018-06-02T08:44:30.318Z,49.28
2018-06-02T08:46:56.407Z,49.09
2018-06-02T08:49:22.741Z,50.44
2018-06-02T08:51:48.774Z,50.70
2018-06-02T08:54:14.716Z,51.34
2018-06-02T08:56:40.686Z,51.92
2018-06-02T08:59:06.620Z,52.63
2018-06-02T09:01:32.569Z,52.78
2018-06-02T09:03:58.529Z,52.38
2018-06-02T09:06:24.480Z,52.95
2018-06-02T09:08:50.446Z,52.41
2018-06-02T09:11:16.437Z,53.01
2018-06-02T09:13:42.385Z,53.27
2018-06-02T09:16:08.341Z,53.30
2018-06-02T09:18:34.294Z,53.34
2018-06-02T09:21:00.254Z,53.52
2018-06-02T09:23:26.210Z,53.21
2018-06-02T09:25:52.296Z,53.42
2018-06-02T09:28:18.297Z,52.85
2018-06-02T09:30:44.271Z,53.10
2018-06-02T09:33:10.217Z,53.63
2018-06-02T09:35:36.178Z,54.47
2018-06-02T09:38:02.156Z,54.69
2018-06-02T09:40:28.117Z,54.92
2018-06-02T09:42:54.115Z,54.57
2018-06-02T09:45:20.097Z,54.91
2018-06-02T09:47:46.207Z,55.82
2018-06-02T09:50:12.084Z,56.05
2018-06-02T09:52:38.035Z,55.06
2018-06-02T09:55:03.988Z,54.35
2018-06-02T09:57:29.943Z,55.10
2018-06-02T09:59:55.897Z,55.10
2018-06-02T10:02:21.887Z,55.01
2018-06-02T10:04:47.834Z,55.61
2018-06-02T10:07:13.826Z,56.04
2018-06-02T10:09:39.805Z,56.15
2018-06-02T10:12:05.762Z,55.46
2018-06-02T10:14:31.746Z,56.99
2018-06-02T10:16:57.689Z,57.27
2018-06-02T10:19:23.626Z,56.18
2018-06-02T10:21:49.588Z,57.18
2018-06-02T10:24:15.533Z,57.20
2018-06-02T10:26:41.874Z,56.90
2018-06-02T10:29:07.920Z,57.02
2018-06-02T10:31:33.936Z,55.75
2018-06-02T10:34:00.002Z,56.12
2018-06-02T10:36:27.094Z,54.82
2018-06-02T10:38:53.087Z,54.75
2018-06-02T10:41:19.226Z,54.65
2018-06-02T10:43:45.197Z,54.41
2018-06-02T10:46:11.152Z,54.31
2018-06-02T10:48:37.180Z,55.56
2018-06-02T10:51:03.160Z,54.06
2018-06-02T10:53:29.115Z,53.71
2018-06-02T10:55:55.081Z,53.60
2018-06-02T10:58:21.134Z,54.79
2018-06-02T11:00:47.063Z,55.45
2018-06-02T11:03:13.057Z,54.44
2018-06-02T11:05:39.025Z,54.51
2018-06-02T11:08:04.996Z,55.86
2018-06-02T11:10:30.934Z,55.85
2018-06-02T11:12:56.927Z,55.97
2018-06-02T11:15:22.924Z,55.13
2018-06-02T11:17:48.896Z,56.46
2018-06-02T11:20:14.844Z,54.89
2018-06-02T11:22:40.803Z,55.96
2018-06-02T11:25:06.746Z,56.03
2018-06-02T11:27:32.685Z,57.04
2018-06-02T11:29:58.621Z,56.75
2018-06-02T11:32:24.554Z,56.22
2018-06-02T11:34:50.587Z,55.89
2018-06-02T11:37:16.573Z,56.13
2018-06-02T11:39:42.544Z,55.74
2018-06-02T11:42:08.532Z,55.91
2018-06-02T11:44:34.498Z,56.32
2018-06-02T11:47:00.494Z,54.91
2018-06-02T11:49:26.483Z,55.33
2018-06-02T11:51:52.436Z,55.43
2018-06-02T11:54:18.417Z,55.47
2018-06-02T11:56:44.384Z,55.79
2018-06-02T11:59:10.320Z,56.36
2018-06-02T12:01:36.276Z,55.56
2018-06-02T12:04:02.336Z,56.24
2018-06-02T12:06:28.288Z,55.17
2018-06-02T12:08:54.279Z,55.63
2018-06-02T12:11:20.291Z,56.96
2018-06-02T12:13:46.274Z,57.22
2018-06-02T12:16:12.266Z,57.40
2018-06-02T12:18:38.291Z,58.25
2018-06-02T12:21:04.246Z,56.90
2018-06-02T12:23:30.236Z,56.83
2018-06-02T12:25:56.317Z,56.95
2018-06-02T12:28:22.315Z,56.17
2018-06-02T12:30:48.467Z,55.64
2018-06-02T12:33:14.486Z,56.01
2018-06-02T12:35:40.512Z,55.93
2018-06-02T12:38:06.537Z,55.97
2018-06-02T12:43:04.345Z,56.14
2018-06-02T12:45:31.519Z,56.73
2018-06-02T12:47:57.593Z,55.33
2018-06-02T12:50:23.606Z,55.17
2018-06-02T12:52:49.686Z,55.02
2018-06-02T12:55:15.726Z,55.16
2018-06-02T12:57:41.840Z,54.88
2018-06-02T13:00:08.014Z,54.63
2018-06-02T13:02:34.047Z,55.06
2018-06-02T13:05:00.270Z,55.00
2018-06-02T13:07:26.740Z,55.43
2018-06-02T13:09:52.779Z,54.96
2018-06-02T13:12:18.766Z,55.25
2018-06-02T13:14:44.708Z,54.52
2018-06-02T13:17:10.685Z,54.88
2018-06-02T13:19:36.643Z,54.95
2018-06-02T13:22:02.675Z,55.40
2018-06-02T13:24:28.654Z,54.61
2018-06-02T13:26:54.628Z,55.14
2018-06-02T13:29:20.792Z,55.87
2018-06-02T13:31:46.733Z,55.40
2018-06-02T13:34:12.754Z,54.54
2018-06-02T13:36:38.780Z,54.54
2018-06-02T13:39:04.769Z,55.29
2018-06-02T13:41:30.798Z,55.02
2018-06-02T13:43:56.775Z,54.56
2018-06-02T13:46:22.759Z,54.47
2018-06-02T13:48:48.785Z,56.16
2018-06-02T13:51:14.731Z,55.42
2018-06-02T13:53:40.680Z,56.29
2018-06-02T13:56:06.646Z,56.65
2018-06-02T13:58:32.602Z,55.64
2018-06-02T14:00:58.569Z,55.12
2018-06-02T14:03:24.497Z,54.82
2018-06-02T14:05:50.454Z,54.60
2018-06-02T14:08:16.418Z,54.46
2018-06-02T14:10:42.396Z,54.59
2018-06-02T14:13:08.610Z,54.50
2018-06-02T14:15:34.559Z,54.60
2018-06-02T14:18:00.519Z,54.92
2018-06-02T14:20:26.484Z,54.73
2018-06-02T14:22:52.442Z,54.49
2018-06-02T14:25:18.425Z,56.18
2018-06-02T14:27:44.459Z,54.69
2018-06-02T14:30:10.421Z,55.04
2018-06-02T14:32:36.369Z,54.87
2018-06-02T14:35:02.314Z,54.60
2018-06-02T14:37:28.388Z,54.72
2018-06-02T14:39:54.359Z,54.83
2018-06-02T14:42:21.114Z,54.90
2018-06-02T14:44:47.072Z,54.73
2018-06-02T14:47:13.023Z,54.93
2018-06-02T14:49:39.097Z,55.30
2018-06-02T14:52:05.118Z,54.67
2018-06-02T14:54:31.088Z,54.80
2018-06-02T14:56:57.188Z,54.68
2018-06-02T14:59:23.177Z,54.37
2018-06-02T15:01:49.137Z,54.83
2018-06-02T15:04:15.094Z,54.83
2018-06-02T15:06:41.082Z,55.05
2018-06-02T15:09:07.042Z,55.16
2018-06-02T15:11:33.045Z,54.55
2018-06-02T15:13:59.033Z,55.39
2018-06-02T15:16:25.077Z,55.25
2018-06-02T15:18:51.050Z,55.33
2018-06-02T15:21:17.068Z,55.27
2018-06-02T15:23:43.096Z,55.31
2018-06-02T15:26:09.060Z,55.49
2018-06-02T15:28:35.005Z,55.75
2018-06-02T15:31:01.011Z,55.54
2018-06-02T15:33:27.021Z,55.30
2018-06-02T15:35:53.056Z,56.06
2018-06-02T15:38:19.049Z,55.44
2018-06-02T15:40:45.038Z,55.08
2018-06-02T15:43:11.057Z,54.81
2018-06-02T15:45:37.332Z,55.38
2018-06-02T15:48:03.292Z,55.67
2018-06-02T15:50:29.276Z,55.11
2018-06-02T15:52:55.259Z,54.74
2018-06-02T15:55:21.237Z,55.08
2018-06-02T15:57:47.218Z,55.26
2018-06-02T16:00:13.232Z,55.56
2018-06-02T16:02:39.244Z,55.69
2018-06-02T16:05:05.218Z,55.50
2018-06-02T16:07:31.213Z,55.33
2018-06-02T16:09:57.309Z,55.70
2018-06-02T16:12:23.345Z,55.05
2018-06-02T16:14:49.295Z,54.62
2018-06-02T16:17:15.262Z,55.53
2018-06-02T16:19:41.333Z,55.49
2018-06-02T16:22:07.340Z,54.66
2018-06-02T16:24:33.293Z,55.02
2018-06-02T16:26:59.232Z,55.08
2018-06-02T16:29:25.203Z,54.80
2018-06-02T16:31:51.179Z,54.86
2018-06-02T16:34:17.128Z,55.34
2018-06-02T16:36:43.104Z,56.01
2018-06-02T16:39:09.091Z,56.89
2018-06-02T16:41:35.331Z,56.55
2018-06-02T16:44:01.709Z,55.90
2018-06-02T16:46:27.748Z,55.88
2018-06-02T16:48:53.983Z,55.71
2018-06-02T16:51:20.362Z,55.56
2018-06-02T16:53:47.683Z,55.88
2018-06-02T16:56:14.518Z,55.73
2018-06-02T16:58:40.804Z,55.79
2018-06-02T17:01:06.973Z,56.25
2018-06-02T17:03:33.197Z,55.78
2018-06-02T17:05:59.493Z,55.55
2018-06-02T17:08:25.743Z,55.73
2018-06-02T17:10:52.912Z,56.10
2018-06-02T17:13:19.146Z,56.35
2018-06-02T17:15:45.121Z,56.12
2018-06-02T17:18:11.100Z,56.50
2018-06-02T17:20:37.163Z,56.89
2018-06-02T17:23:03.192Z,57.04
2018-06-02T17:25:29.306Z,57.24
2018-06-02T17:27:55.341Z,57.01
2018-06-02T17:30:21.375Z,56.88
2018-06-02T17:32:47.433Z,57.03
2018-06-02T17:35:13.445Z,56.95
2018-06-02T17:37:39.467Z,57.08
2018-06-02T17:40:05.604Z,56.31
2018-06-02T17:42:31.704Z,56.45
2018-06-02T17:44:57.661Z,56.61
2018-06-02T17:47:23.681Z,56.55
2018-06-02T17:49:49.716Z,56.79
2018-06-02T17:52:15.876Z,56.85
2018-06-02T17:54:41.851Z,56.84
2018-06-02T17:57:07.933Z,57.61
2018-06-02T17:59:33.937Z,58.21
2018-06-02T18:02:00.137Z,57.67
2018-06-02T18:04:26.104Z,57.64
2018-06-02T18:06:52.210Z,57.16
2018-06-02T18:09:18.194Z,57.73
2018-06-02T18:11:45.212Z,56.96
2018-06-02T18:14:13.288Z,57.63
2018-06-02T18:16:39.447Z,57.39
2018-06-02T18:19:05.498Z,57.09
2018-06-02T18:21:31.486Z,57.38
2018-06-02T18:23:57.588Z,57.44
2018-06-02T18:26:56.856Z,58.88
2018-06-02T18:29:22.906Z,57.68
2018-06-02T18:31:48.916Z,57.72
2018-06-02T18:34:14.851Z,58.17
2018-06-02T18:36:40.968Z,58.15
2018-06-02T18:39:10.853Z,58.76
2018-06-02T18:41:36.851Z,59.16
2018-06-02T18:44:02.824Z,59.78
2018-06-02T18:46:28.832Z,59.75
2018-06-02T18:48:54.812Z,59.34
2018-06-02T18:51:20.843Z,59.71
2018-06-02T18:53:46.929Z,60.05
2018-06-02T18:56:12.913Z,61.29
2018-06-02T18:58:38.968Z,60.63
2018-06-02T19:01:05.050Z,61.55
2018-06-02T19:03:30.995Z,61.45
2018-06-02T19:05:56.985Z,61.00
2018-06-02T19:08:22.990Z,60.98
2018-06-02T19:10:48.951Z,61.09
2018-06-02T19:13:14.997Z,62.64
2018-06-02T19:15:40.957Z,62.98
2018-06-02T19:18:07.124Z,63.99
2018-06-02T19:20:33.255Z,63.99
2018-06-02T19:22:59.275Z,64.18
2018-06-02T19:25:25.264Z,64.99
2018-06-02T19:27:51.241Z,64.17
2018-06-02T19:30:17.245Z,64.71
2018-06-02T19:32:43.246Z,65.13
2018-06-02T19:35:09.238Z,64.71
2018-06-02T19:37:35.190Z,64.09
2018-06-02T19:40:01.269Z,64.81
2018-06-02T19:42:27.221Z,63.90
2018-06-02T19:44:53.217Z,64.21
2018-06-02T19:47:19.204Z,65.50
2018-06-02T19:49:45.156Z,64.13
2018-06-02T19:52:11.129Z,64.05
2018-06-02T19:54:37.109Z,64.80
2018-06-02T19:57:03.132Z,64.99
2018-06-02T19:59:29.121Z,65.02
2018-06-02T20:01:55.163Z,65.03
2018-06-02T20:04:21.187Z,64.50
2018-06-02T20:06:47.166Z,63.90
2018-06-02T20:09:13.201Z,64.90
2018-06-02T20:11:39.228Z,65.09
2018-06-02T20:14:05.323Z,65.56
2018-06-02T20:16:31.331Z,64.02
2018-06-02T20:18:57.362Z,64.32
2018-06-02T20:21:23.343Z,64.36
2018-06-02T20:23:49.317Z,64.94
2018-06-02T20:26:15.297Z,64.88
2018-06-02T20:28:41.312Z,64.45
2018-06-02T20:31:07.267Z,64.24
2018-06-02T20:33:33.250Z,64.83
2018-06-02T20:35:59.273Z,64.67
2018-06-02T20:38:25.289Z,64.13
2018-06-02T20:40:51.277Z,65.20
2018-06-02T20:43:17.268Z,65.15
2018-06-02T20:45:43.303Z,65.37
2018-06-02T20:48:09.242Z,64.54
2018-06-02T20:50:35.184Z,64.41
2018-06-02T20:53:01.145Z,64.31
2018-06-02T20:55:27.130Z,65.07
2018-06-02T20:57:53.110Z,63.36
2018-06-02T21:00:19.125Z,63.59
2018-06-02T21:02:45.139Z,63.65
2018-06-02T21:05:11.184Z,63.08
2018-06-02T21:07:37.131Z,64.26
2018-06-02T21:10:03.139Z,63.89
2018-06-02T21:12:29.139Z,64.92
2018-06-02T21:14:55.135Z,64.58
2018-06-02T21:17:21.399Z,64.46
2018-06-02T21:19:47.394Z,62.98
2018-06-02T21:22:13.349Z,63.84
2018-06-02T21:24:39.305Z,63.99
2018-06-02T21:27:05.268Z,62.71
2018-06-02T21:29:31.220Z,63.76
2018-06-02T21:31:57.174Z,64.26
2018-06-02T21:34:23.151Z,64.08
2018-06-02T21:36:49.100Z,65.07
2018-06-02T21:39:15.089Z,64.38
2018-06-02T21:41:41.098Z,64.97
2018-06-02T21:44:07.081Z,65.01
2018-06-02T21:46:33.054Z,64.07
2018-06-02T21:48:59.052Z,63.94
2018-06-02T21:51:25.018Z,64.96
2018-06-02T21:53:50.981Z,64.39
2018-06-02T21:56:16.973Z,64.08
2018-06-02T21:58:43.040Z,63.88
2018-06-02T22:01:09.001Z,64.01
2018-06-02T22:03:34.968Z,63.83
2018-06-02T22:06:00.981Z,63.39
2018-06-02T22:08:26.932Z,62.41
2018-06-02T22:10:52.899Z,63.00
2018-06-02T22:13:18.842Z,62.67
2018-06-02T22:15:44.780Z,62.70
2018-06-02T22:18:10.729Z,62.66
2018-06-02T22:20:36.744Z,62.56
2018-06-02T22:23:02.677Z,63.25
2018-06-02T22:25:28.650Z,62.37
2018-06-02T22:27:54.610Z,62.77
2018-06-02T22:30:20.564Z,62.81
2018-06-02T22:32:46.589Z,62.41
2018-06-02T22:35:12.590Z,62.50
2018-06-02T22:37:38.563Z,63.23
2018-06-02T22:40:04.519Z,63.49
2018-06-02T22:42:30.543Z,62.82
2018-06-02T22:44:56.508Z,62.49
2018-06-02T22:47:22.509Z,62.42
2018-06-02T22:49:48.481Z,62.03
2018-06-02T22:52:14.413Z,63.03
2018-06-02T22:54:40.394Z,62.55
2018-06-02T22:57:06.350Z,63.59
2018-06-02T22:59:32.300Z,64.50
2018-06-02T23:01:58.272Z,65.01
2018-06-02T23:04:24.221Z,65.27
2018-06-02T23:06:50.193Z,66.32
2018-06-02T23:09:16.155Z,66.72
2018-06-02T23:11:42.138Z,66.91
2018-06-02T23:14:08.099Z,67.59
2018-06-02T23:16:34.066Z,66.60
2018-06-02T23:19:00.040Z,67.58
2018-06-02T23:21:25.997Z,67.61
2018-06-02T23:23:51.936Z,66.89
2018-06-02T23:26:17.945Z,65.52
2018-06-02T23:28:43.881Z,66.32
2018-06-02T23:31:09.825Z,66.44
2018-06-02T23:33:35.773Z,65.82
2018-06-02T23:36:01.740Z,66.06
2018-06-02T23:38:27.684Z,65.12
2018-06-02T23:40:53.633Z,65.79
2018-06-02T23:43:19.583Z,65.61
2018-06-02T23:45:45.532Z,65.51
2018-06-02T23:48:11.468Z,66.12
2018-06-02T23:50:37.430Z,67.35
2018-06-02T23:53:03.371Z,68.01
2018-06-02T23:55:29.323Z,67.86
2018-06-02T23:57:55.257Z,67.89
